EGUW - Wattisham
Distance from station: E 5mi, 14km
Updated: 02/24/2024 5:50pm
Fog, Overcast
Fog, Overcast
 Wind from W
Wind: W 3 mph , 6 km/h
Temperature: 34°F , 1°C
Dew Point: 34°F , 1°C
Humidity: 100%
Barometer: 29.44 inHg , 997 hPa
Summary: Fog
Clouds: Overcast
Visibility: 0 mile , 0 km
Cloud details: Overcast 100 ft
2024/02/25 01:50 EGUW 250150Z AUTO 26003KT 0100 FG OVC001/// 01/01 Q0997